createdAt,value
2018-11-07T00:00:48.824Z,60.20
2018-11-07T00:03:18.246Z,59.90
2018-11-07T00:05:47.310Z,60.20
2018-11-07T00:08:16.830Z,60.20
2018-11-07T00:10:46.044Z,60.20
2018-11-07T00:13:15.120Z,59.90
2018-11-07T00:15:44.237Z,60.20
2018-11-07T00:18:13.281Z,60.20
2018-11-07T00:20:42.457Z,60.20
2018-11-07T00:23:11.560Z,60.20
2018-11-07T00:25:40.665Z,60.80
2018-11-07T00:28:09.775Z,60.20
2018-11-07T00:30:38.865Z,60.20
2018-11-07T00:33:08.140Z,60.20
2018-11-07T00:35:37.209Z,60.10
2018-11-07T00:38:06.349Z,60.20
2018-11-07T00:40:35.564Z,60.00
2018-11-07T00:43:04.625Z,60.00
2018-11-07T00:45:33.754Z,60.00
2018-11-07T00:48:02.852Z,60.00
2018-11-07T00:50:31.888Z,60.00
2018-11-07T00:53:01.037Z,60.00
2018-11-07T00:55:30.110Z,60.00
2018-11-07T00:57:59.293Z,59.90
2018-11-07T01:00:28.361Z,59.80
2018-11-07T01:02:57.459Z,59.70
2018-11-07T01:05:26.560Z,59.60
2018-11-07T01:07:55.659Z,59.60
2018-11-07T01:10:24.772Z,59.50
2018-11-07T01:12:53.844Z,59.50
2018-11-07T01:15:22.960Z,59.40
2018-11-07T01:17:52.059Z,59.40
2018-11-07T01:20:21.183Z,59.30
2018-11-07T01:22:50.258Z,60.00
2018-11-07T01:25:19.298Z,59.30
2018-11-07T01:27:48.445Z,59.20
2018-11-07T01:30:17.543Z,59.20
2018-11-07T01:32:46.684Z,59.20
2018-11-07T01:35:15.770Z,59.10
2018-11-07T01:37:44.861Z,59.00
2018-11-07T01:40:14.805Z,59.10
2018-11-07T01:42:44.684Z,59.00
2018-11-07T01:45:14.232Z,59.00
2018-11-07T01:47:43.458Z,58.90
2018-11-07T01:50:13.517Z,58.90
2018-11-07T01:52:42.603Z,58.80
2018-11-07T01:55:11.998Z,58.80
2018-11-07T01:57:41.240Z,58.70
2018-11-07T02:00:12.087Z,58.60
2018-11-07T02:02:42.448Z,58.70
2018-11-07T02:05:11.612Z,58.60
2018-11-07T02:07:41.078Z,58.60
2018-11-07T02:10:11.107Z,58.60
2018-11-07T02:12:40.884Z,58.60
2018-11-07T02:15:10.738Z,58.50
2018-11-07T02:17:40.039Z,58.50
2018-11-07T02:20:10.339Z,58.50
2018-11-07T02:22:39.492Z,58.60
2018-11-07T02:25:08.738Z,58.50
2018-11-07T02:27:37.815Z,58.50
2018-11-07T02:30:09.684Z,58.50
2018-11-07T02:32:38.812Z,58.50
2018-11-07T02:35:08.031Z,58.40
2018-11-07T02:37:37.200Z,58.40
2018-11-07T02:40:06.934Z,58.40
2018-11-07T02:42:36.063Z,58.40
2018-11-07T02:45:05.473Z,58.40
2018-11-07T02:47:34.643Z,58.40
2018-11-07T02:50:03.790Z,58.40
2018-11-07T02:52:32.948Z,58.40
2018-11-07T02:55:02.069Z,58.40
2018-11-07T02:57:31.227Z,58.40
2018-11-07T03:00:00.409Z,58.40
2018-11-07T03:02:29.522Z,58.40
2018-11-07T03:04:58.652Z,58.30
2018-11-07T03:07:27.728Z,58.30
2018-11-07T03:09:56.831Z,58.30
2018-11-07T03:12:26.236Z,58.30
2018-11-07T03:14:55.314Z,58.20
2018-11-07T03:17:24.478Z,58.20
2018-11-07T03:19:53.581Z,58.10
2018-11-07T03:22:22.711Z,58.10
2018-11-07T03:24:51.833Z,58.00
2018-11-07T03:27:20.901Z,58.00
2018-11-07T03:29:49.958Z,58.00
2018-11-07T03:32:19.061Z,57.90
2018-11-07T03:34:48.320Z,57.90
2018-11-07T03:37:17.393Z,57.90
2018-11-07T03:39:46.550Z,57.80
2018-11-07T03:42:15.701Z,57.80
2018-11-07T03:44:44.758Z,57.80
2018-11-07T03:47:13.869Z,57.80
2018-11-07T03:49:42.984Z,57.70
2018-11-07T03:52:12.012Z,57.70
2018-11-07T03:54:41.132Z,57.70
2018-11-07T03:57:10.272Z,57.70
2018-11-07T03:59:39.332Z,57.60
2018-11-07T04:02:08.459Z,57.70
2018-11-07T04:04:37.552Z,57.70
2018-11-07T04:07:06.833Z,57.70
2018-11-07T04:09:35.885Z,57.70
2018-11-07T04:12:05.029Z,57.70
2018-11-07T04:14:34.105Z,57.70
2018-11-07T04:17:03.200Z,57.70
2018-11-07T04:19:32.272Z,57.60
2018-11-07T04:22:01.314Z,57.60
2018-11-07T04:24:30.380Z,57.60
2018-11-07T04:26:59.527Z,57.60
2018-11-07T04:29:28.679Z,57.60
2018-11-07T04:31:57.880Z,57.60
2018-11-07T04:34:27.124Z,57.60
2018-11-07T04:36:56.210Z,57.60
2018-11-07T04:39:25.339Z,57.70
2018-11-07T04:41:54.472Z,57.70
2018-11-07T04:44:23.561Z,57.80
2018-11-07T04:46:52.624Z,57.80
2018-11-07T04:49:21.819Z,57.80
2018-11-07T04:51:50.908Z,57.90
2018-11-07T04:54:19.984Z,57.80
2018-11-07T04:56:49.021Z,57.90
2018-11-07T04:59:18.116Z,57.90
2018-11-07T05:01:47.204Z,57.90
2018-11-07T05:04:16.276Z,57.90
2018-11-07T05:06:45.375Z,57.90
2018-11-07T05:09:14.401Z,58.00
2018-11-07T05:11:43.514Z,58.00
2018-11-07T05:14:12.655Z,58.10
2018-11-07T05:16:41.739Z,58.10
2018-11-07T05:19:10.904Z,58.10
2018-11-07T05:21:40.008Z,58.10
2018-11-07T05:24:09.178Z,58.10
2018-11-07T05:26:38.265Z,58.10
2018-11-07T05:29:07.420Z,58.10
2018-11-07T05:31:36.486Z,58.20
2018-11-07T05:34:05.731Z,58.20
2018-11-07T05:36:34.852Z,58.20
2018-11-07T05:39:04.926Z,58.10
2018-11-07T05:41:33.989Z,58.20
2018-11-07T05:44:03.089Z,58.20
2018-11-07T05:46:32.206Z,58.10
2018-11-07T05:49:01.347Z,58.10
2018-11-07T05:51:30.404Z,58.10
2018-11-07T05:53:59.455Z,58.00
2018-11-07T05:56:28.516Z,58.00
2018-11-07T05:58:57.611Z,58.00
2018-11-07T06:01:26.737Z,58.00
2018-11-07T06:03:56.479Z,58.40
2018-11-07T06:06:25.612Z,57.90
2018-11-07T06:08:54.672Z,58.00
2018-11-07T06:11:23.757Z,58.00
2018-11-07T06:13:52.985Z,57.90
2018-11-07T06:16:22.256Z,57.90
2018-11-07T06:18:51.285Z,57.80
2018-11-07T06:21:20.332Z,57.70
2018-11-07T06:23:49.377Z,57.60
2018-11-07T06:26:18.577Z,57.50
2018-11-07T06:28:47.632Z,57.40
2018-11-07T06:31:16.769Z,57.30
2018-11-07T06:33:45.841Z,57.20
2018-11-07T06:36:14.930Z,57.20
2018-11-07T06:38:44.017Z,57.10
2018-11-07T06:41:13.133Z,57.00
2018-11-07T06:43:42.193Z,56.90
2018-11-07T06:46:11.384Z,56.80
2018-11-07T06:48:40.457Z,56.70
2018-11-07T06:51:09.546Z,56.60
2018-11-07T06:53:38.658Z,56.40
2018-11-07T06:56:07.770Z,56.40
2018-11-07T06:58:36.839Z,56.30
2018-11-07T07:01:05.894Z,56.20
2018-11-07T07:03:35.007Z,56.10
2018-11-07T07:06:04.194Z,56.10
2018-11-07T07:08:33.309Z,56.00
2018-11-07T07:11:02.337Z,55.90
2018-11-07T07:13:31.548Z,55.90
2018-11-07T07:16:00.671Z,55.90
2018-11-07T07:18:29.792Z,55.80
2018-11-07T07:20:58.920Z,55.70
2018-11-07T07:23:27.976Z,55.60
2018-11-07T07:25:57.077Z,55.60
2018-11-07T07:28:26.177Z,55.60
2018-11-07T07:30:55.291Z,55.40
2018-11-07T07:33:24.415Z,55.50
2018-11-07T07:35:53.591Z,55.40
2018-11-07T07:38:22.694Z,55.30
2018-11-07T07:40:51.746Z,55.10
2018-11-07T07:43:20.864Z,54.80
2018-11-07T07:45:49.997Z,54.60
2018-11-07T07:48:19.062Z,54.60
2018-11-07T07:50:48.128Z,54.60
2018-11-07T07:53:17.265Z,54.60
2018-11-07T07:55:46.366Z,54.70
2018-11-07T07:58:15.452Z,54.80
2018-11-07T08:00:44.571Z,54.70
2018-11-07T08:03:13.732Z,55.30
2018-11-07T08:05:42.815Z,54.50
2018-11-07T08:08:11.917Z,54.50
2018-11-07T08:10:41.014Z,54.50
2018-11-07T08:13:10.160Z,54.60
2018-11-07T08:15:39.259Z,54.50
2018-11-07T08:18:08.369Z,54.40
2018-11-07T08:20:37.477Z,54.30
2018-11-07T08:23:06.660Z,54.30
2018-11-07T08:25:35.699Z,54.30
2018-11-07T08:28:04.824Z,54.30
2018-11-07T08:30:33.972Z,54.20
2018-11-07T08:33:03.099Z,54.20
2018-11-07T08:35:32.191Z,54.20
2018-11-07T08:38:01.321Z,54.20
2018-11-07T08:40:30.422Z,54.20
2018-11-07T08:42:59.474Z,54.10
2018-11-07T08:45:28.593Z,54.00
2018-11-07T08:47:57.730Z,54.00
2018-11-07T08:50:26.826Z,53.90
2018-11-07T08:52:55.919Z,53.90
2018-11-07T08:55:24.999Z,53.90
2018-11-07T08:57:54.136Z,53.90
2018-11-07T09:00:24.264Z,53.80
2018-11-07T09:02:53.582Z,53.80
2018-11-07T09:05:23.430Z,53.90
2018-11-07T09:07:52.672Z,53.90
2018-11-07T09:10:23.309Z,53.90
2018-11-07T09:12:52.561Z,53.90
2018-11-07T09:15:22.756Z,53.90
2018-11-07T09:17:51.994Z,53.80
2018-11-07T09:20:22.584Z,53.90
2018-11-07T09:22:51.843Z,53.90
2018-11-07T09:25:21.098Z,53.90
2018-11-07T09:27:50.329Z,53.90
2018-11-07T09:30:20.917Z,53.80
2018-11-07T09:32:50.304Z,53.80
2018-11-07T09:35:20.161Z,53.80
2018-11-07T09:37:49.555Z,53.90
2018-11-07T09:40:20.110Z,54.00
2018-11-07T09:42:49.879Z,54.10
2018-11-07T09:45:20.462Z,54.20
2018-11-07T09:47:49.758Z,54.20
2018-11-07T09:50:19.580Z,54.20
2018-11-07T09:52:48.870Z,54.20
2018-11-07T09:55:19.591Z,54.90
2018-11-07T09:57:48.951Z,54.20
2018-11-07T10:00:20.421Z,54.20
2018-11-07T10:02:49.737Z,54.20
2018-11-07T10:05:20.191Z,54.20
2018-11-07T10:07:49.536Z,54.20
2018-11-07T10:10:20.198Z,54.20
2018-11-07T10:12:49.656Z,54.20
2018-11-07T10:15:19.375Z,54.30
2018-11-07T10:17:48.648Z,54.30
2018-11-07T10:20:20.962Z,54.10
2018-11-07T10:22:50.709Z,54.00
2018-11-07T10:25:20.179Z,53.80
2018-11-07T10:27:49.629Z,53.80
2018-11-07T10:30:20.054Z,54.00
2018-11-07T10:32:50.308Z,54.40
2018-11-07T10:35:19.804Z,54.30
2018-11-07T10:37:49.113Z,54.60
2018-11-07T10:40:19.992Z,54.60
2018-11-07T10:42:49.447Z,54.60
2018-11-07T10:45:18.804Z,54.70
2018-11-07T10:47:48.772Z,54.60
2018-11-07T10:50:19.101Z,54.80
2018-11-07T10:52:48.736Z,54.80
2018-11-07T10:55:18.375Z,54.90
2018-11-07T10:57:47.695Z,54.90
2018-11-07T11:00:22.417Z,54.80
2018-11-07T11:02:56.955Z,54.80
2018-11-07T11:05:26.528Z,54.90
2018-11-07T11:07:55.789Z,54.90
2018-11-07T11:10:25.059Z,55.00
2018-11-07T11:12:54.319Z,55.10
2018-11-07T11:15:23.562Z,55.10
2018-11-07T11:17:52.844Z,55.10
2018-11-07T11:20:22.119Z,55.10
2018-11-07T11:22:51.365Z,55.10
2018-11-07T11:25:21.658Z,55.00
2018-11-07T11:27:51.069Z,55.00
2018-11-07T11:30:20.313Z,55.00
2018-11-07T11:32:49.656Z,55.10
2018-11-07T11:35:19.075Z,55.20
2018-11-07T11:37:48.204Z,55.20
2018-11-07T11:40:17.566Z,55.40
2018-11-07T11:42:46.797Z,55.20
2018-11-07T11:45:17.133Z,55.10
2018-11-07T11:47:46.851Z,55.10
2018-11-07T11:50:17.444Z,55.20
2018-11-07T11:52:47.674Z,55.10
2018-11-07T11:55:17.133Z,54.90
2018-11-07T11:57:46.928Z,54.90
2018-11-07T12:00:17.643Z,54.80
2018-11-07T12:02:47.282Z,54.80
2018-11-07T12:05:17.524Z,54.90
2018-11-07T12:07:46.789Z,54.90
2018-11-07T12:10:20.275Z,55.00
2018-11-07T12:12:50.939Z,55.10
2018-11-07T12:15:21.193Z,55.10
2018-11-07T12:17:50.503Z,55.10
2018-11-07T12:20:19.831Z,55.00
2018-11-07T12:22:49.176Z,55.60
2018-11-07T12:25:19.460Z,54.80
2018-11-07T12:27:48.693Z,54.70
2018-11-07T12:30:19.434Z,54.70
2018-11-07T12:32:49.736Z,54.80
2018-11-07T12:35:19.533Z,54.80
2018-11-07T12:37:48.844Z,54.80
2018-11-07T12:40:18.733Z,54.80
2018-11-07T12:42:47.994Z,54.70
2018-11-07T12:45:17.797Z,54.70
2018-11-07T12:47:47.169Z,54.70
2018-11-07T12:50:17.997Z,54.70
2018-11-07T12:52:47.447Z,54.70
2018-11-07T12:55:17.396Z,54.70
2018-11-07T12:57:46.801Z,54.70
2018-11-07T13:00:19.445Z,54.70
2018-11-07T13:02:48.795Z,54.80
2018-11-07T13:05:19.159Z,54.80
2018-11-07T13:07:49.228Z,54.90
2018-11-07T13:10:19.703Z,54.90
2018-11-07T13:12:49.678Z,54.90
2018-11-07T13:15:19.157Z,54.90
2018-11-07T13:17:49.219Z,54.90
2018-11-07T13:20:22.270Z,54.90
2018-11-07T13:22:52.615Z,54.90
2018-11-07T13:25:22.376Z,54.90
2018-11-07T13:27:51.658Z,54.80
2018-11-07T13:30:21.854Z,54.90
2018-11-07T13:32:51.158Z,54.90
2018-11-07T13:35:20.842Z,55.00
2018-11-07T13:37:50.855Z,54.90
2018-11-07T13:40:22.268Z,55.00
2018-11-07T13:42:51.581Z,55.00
2018-11-07T13:45:22.017Z,55.00
2018-11-07T13:47:52.483Z,55.00
2018-11-07T13:50:21.863Z,54.90
2018-11-07T13:52:51.341Z,54.80
2018-11-07T13:55:20.607Z,54.70
2018-11-07T13:57:49.944Z,54.60
2018-11-07T14:00:23.289Z,54.70
2018-11-07T14:02:53.507Z,54.50
2018-11-07T14:05:22.940Z,54.60
2018-11-07T14:07:52.101Z,54.70
2018-11-07T14:10:23.241Z,54.60
2018-11-07T14:12:53.083Z,54.60
2018-11-07T14:15:22.423Z,54.60
2018-11-07T14:17:51.945Z,54.80
2018-11-07T14:20:21.339Z,54.70
2018-11-07T14:22:50.589Z,55.40
2018-11-07T14:25:19.920Z,54.90
2018-11-07T14:27:49.330Z,54.90
2018-11-07T14:30:19.798Z,55.00
2018-11-07T14:32:52.051Z,55.00
2018-11-07T14:35:21.735Z,54.80
2018-11-07T14:37:51.352Z,54.90
2018-11-07T14:40:20.642Z,54.80
2018-11-07T14:42:49.937Z,54.90
2018-11-07T14:45:19.295Z,54.80
2018-11-07T14:47:48.616Z,54.80
2018-11-07T14:50:17.819Z,54.80
2018-11-07T14:52:47.104Z,54.80
2018-11-07T14:55:16.405Z,54.70
2018-11-07T14:57:45.668Z,54.70
2018-11-07T15:00:16.474Z,54.70
2018-11-07T15:02:46.424Z,54.70
2018-11-07T15:05:16.753Z,54.70
2018-11-07T15:07:46.183Z,54.70
2018-11-07T15:10:16.489Z,54.60
2018-11-07T15:12:45.775Z,54.60
2018-11-07T15:15:16.417Z,54.50
2018-11-07T15:17:45.857Z,54.30
2018-11-07T15:20:16.050Z,54.30
2018-11-07T15:22:45.328Z,54.10
2018-11-07T15:25:15.515Z,54.10
2018-11-07T15:27:45.767Z,54.10
2018-11-07T15:30:15.917Z,54.10
2018-11-07T15:32:45.641Z,54.20
2018-11-07T15:35:14.989Z,54.20
2018-11-07T15:37:44.216Z,54.10
2018-11-07T15:40:16.666Z,54.10
2018-11-07T15:42:46.421Z,54.10
2018-11-07T15:45:16.923Z,54.10
2018-11-07T15:47:46.299Z,54.00
2018-11-07T15:50:20.785Z,54.00
2018-11-07T15:52:50.674Z,54.60
2018-11-07T15:55:20.013Z,54.10
2018-11-07T15:57:49.233Z,54.20
2018-11-07T16:00:19.296Z,54.30
2018-11-07T16:02:48.530Z,54.40
2018-11-07T16:05:18.032Z,54.60
2018-11-07T16:07:47.265Z,55.30
2018-11-07T16:10:16.832Z,54.90
2018-11-07T16:12:46.131Z,55.10
2018-11-07T16:15:16.864Z,55.40
2018-11-07T16:17:46.410Z,55.50
2018-11-07T16:20:17.226Z,55.80
2018-11-07T16:22:47.172Z,56.00
2018-11-07T16:25:16.447Z,56.80
2018-11-07T16:27:45.937Z,56.20
2018-11-07T16:30:16.700Z,56.40
2018-11-07T16:32:45.934Z,56.50
2018-11-07T16:35:15.524Z,56.50
2018-11-07T16:37:44.877Z,56.70
2018-11-07T16:40:15.573Z,56.90
2018-11-07T16:42:45.175Z,56.90
2018-11-07T16:45:15.285Z,56.90
2018-11-07T16:47:44.791Z,56.90
2018-11-07T16:50:15.087Z,57.00
2018-11-07T16:52:44.566Z,57.10
2018-11-07T16:55:16.114Z,57.10
2018-11-07T16:57:47.567Z,57.20
2018-11-07T17:00:20.400Z,57.30
2018-11-07T17:02:50.353Z,57.40
2018-11-07T17:05:20.106Z,57.40
2018-11-07T17:07:49.639Z,57.50
2018-11-07T17:10:18.923Z,57.50
2018-11-07T17:12:48.207Z,57.50
2018-11-07T17:15:17.477Z,57.50
2018-11-07T17:17:47.813Z,57.50
2018-11-07T17:20:17.188Z,57.50
2018-11-07T17:22:46.442Z,57.50
2018-11-07T17:25:17.438Z,57.50
2018-11-07T17:27:46.809Z,57.50
2018-11-07T17:30:17.414Z,57.50
2018-11-07T17:32:46.620Z,57.50
2018-11-07T17:35:17.190Z,57.50
2018-11-07T17:37:46.583Z,57.50
2018-11-07T17:40:19.035Z,57.50
2018-11-07T17:42:48.523Z,58.10
2018-11-07T17:45:19.192Z,57.50
2018-11-07T17:47:49.278Z,57.50
2018-11-07T17:50:19.376Z,57.50
2018-11-07T17:52:49.047Z,57.20
2018-11-07T17:55:19.004Z,57.20
2018-11-07T17:57:48.325Z,57.30
2018-11-07T18:00:19.050Z,57.30
2018-11-07T18:02:48.470Z,57.20
2018-11-07T18:05:17.755Z,57.30
2018-11-07T18:07:47.059Z,57.30
2018-11-07T18:10:18.235Z,57.30
2018-11-07T18:12:47.820Z,57.30
2018-11-07T18:15:17.128Z,57.30
2018-11-07T18:17:46.355Z,57.30
2018-11-07T18:20:16.544Z,57.40
2018-11-07T18:22:46.464Z,57.30
2018-11-07T18:25:16.600Z,58.00
2018-11-07T18:27:45.996Z,57.30
2018-11-07T18:30:16.523Z,57.30
2018-11-07T18:32:46.584Z,57.30
2018-11-07T18:35:17.482Z,57.20
2018-11-07T18:37:47.137Z,57.20
2018-11-07T18:40:17.896Z,57.70
2018-11-07T18:42:47.196Z,57.10
2018-11-07T18:45:16.686Z,57.10
2018-11-07T18:47:46.995Z,57.00
2018-11-07T18:50:17.812Z,57.00
2018-11-07T18:52:46.946Z,56.90
2018-11-07T18:55:16.966Z,56.30
2018-11-07T18:57:46.677Z,56.90
2018-11-07T19:00:17.435Z,57.50
2018-11-07T19:02:47.207Z,56.80
2018-11-07T19:05:16.487Z,56.70
2018-11-07T19:07:45.997Z,56.70
2018-11-07T19:10:17.312Z,57.30
2018-11-07T19:12:47.352Z,56.60
2018-11-07T19:15:17.097Z,56.60
2018-11-07T19:17:47.218Z,56.60
2018-11-07T19:20:17.222Z,56.60
2018-11-07T19:22:46.417Z,56.50
2018-11-07T19:25:16.945Z,56.50
2018-11-07T19:27:46.290Z,56.40
2018-11-07T19:30:16.797Z,56.40
2018-11-07T19:32:47.005Z,57.10
2018-11-07T19:35:17.444Z,56.40
2018-11-07T19:37:47.327Z,56.50
2018-11-07T19:40:18.243Z,56.40
2018-11-07T19:42:47.626Z,56.40
2018-11-07T19:45:18.232Z,56.30
2018-11-07T19:47:47.881Z,56.20
2018-11-07T19:50:18.464Z,56.20
2018-11-07T19:52:49.026Z,56.10
2018-11-07T19:55:21.211Z,56.00
2018-11-07T19:57:55.375Z,55.90
2018-11-07T20:00:24.762Z,55.90
2018-11-07T20:02:54.180Z,55.90
2018-11-07T20:05:23.751Z,55.90
2018-11-07T20:07:53.620Z,55.90
2018-11-07T20:10:23.425Z,55.90
2018-11-07T20:12:52.859Z,56.00
2018-11-07T20:15:22.404Z,55.90
2018-11-07T20:17:52.020Z,55.90
2018-11-07T20:20:21.732Z,55.90
2018-11-07T20:22:51.351Z,55.90
2018-11-07T20:25:20.884Z,55.80
2018-11-07T20:27:50.842Z,55.80
2018-11-07T20:30:21.406Z,55.80
2018-11-07T20:32:50.928Z,55.80
2018-11-07T20:35:21.544Z,55.80
2018-11-07T20:37:51.321Z,55.80
2018-11-07T20:40:21.956Z,55.80
2018-11-07T20:42:51.453Z,55.80
2018-11-07T20:45:20.908Z,55.70
2018-11-07T20:47:50.308Z,55.70
2018-11-07T20:50:20.893Z,55.60
2018-11-07T20:52:50.329Z,55.60
2018-11-07T20:55:19.734Z,55.60
2018-11-07T20:57:49.300Z,55.50
2018-11-07T21:00:21.177Z,55.50
2018-11-07T21:02:50.735Z,55.50
2018-11-07T21:05:20.115Z,55.50
2018-11-07T21:07:49.601Z,55.50
2018-11-07T21:10:20.425Z,55.50
2018-11-07T21:12:50.315Z,55.50
2018-11-07T21:15:20.496Z,55.50
2018-11-07T21:17:49.932Z,55.60
2018-11-07T21:20:19.449Z,55.50
2018-11-07T21:22:49.104Z,55.60
2018-11-07T21:25:18.566Z,55.50
2018-11-07T21:27:47.984Z,55.50
2018-11-07T21:30:17.489Z,55.50
2018-11-07T21:32:46.872Z,55.60
2018-11-07T21:35:16.252Z,55.60
2018-11-07T21:37:45.624Z,55.60
2018-11-07T21:40:16.381Z,55.60
2018-11-07T21:42:46.661Z,55.60
2018-11-07T21:45:16.463Z,55.60
2018-11-07T21:47:45.789Z,55.60
2018-11-07T21:50:16.630Z,55.60
2018-11-07T21:52:45.890Z,55.60
2018-11-07T21:55:15.148Z,55.60
2018-11-07T21:57:44.486Z,55.60
2018-11-07T22:00:15.932Z,55.60
2018-11-07T22:02:45.533Z,55.60
2018-11-07T22:05:16.203Z,55.60
2018-11-07T22:07:45.576Z,55.50
2018-11-07T22:10:16.108Z,55.50
2018-11-07T22:12:45.461Z,55.40
2018-11-07T22:15:14.728Z,55.40
2018-11-07T22:17:44.053Z,55.40
2018-11-07T22:20:15.748Z,55.40
2018-11-07T22:22:45.626Z,55.40
2018-11-07T22:25:15.139Z,55.30
2018-11-07T22:27:44.455Z,55.30
2018-11-07T22:30:15.926Z,55.30
2018-11-07T22:32:45.238Z,55.30
2018-11-07T22:35:16.046Z,55.20
2018-11-07T22:37:46.026Z,55.20
2018-11-07T22:40:16.802Z,55.20
2018-11-07T22:42:46.033Z,55.20
2018-11-07T22:45:15.677Z,55.20
2018-11-07T22:47:44.925Z,55.10
2018-11-07T22:50:15.189Z,55.10
2018-11-07T22:52:45.243Z,55.10
2018-11-07T22:55:14.478Z,55.00
2018-11-07T22:57:43.702Z,55.00
2018-11-07T23:00:20.353Z,55.10
2018-11-07T23:02:51.427Z,55.00
2018-11-07T23:05:20.775Z,55.10
2018-11-07T23:07:50.623Z,55.10
2018-11-07T23:10:19.879Z,55.10
2018-11-07T23:12:49.671Z,55.10
2018-11-07T23:15:24.385Z,55.00
2018-11-07T23:17:53.765Z,55.00
2018-11-07T23:20:23.093Z,55.00
2018-11-07T23:22:52.423Z,55.00
2018-11-07T23:25:21.747Z,55.00
2018-11-07T23:27:51.013Z,55.00
2018-11-07T23:30:20.307Z,55.00
2018-11-07T23:32:49.588Z,55.00
2018-11-07T23:35:18.874Z,55.00
2018-11-07T23:37:48.273Z,54.80
2018-11-07T23:40:17.629Z,54.70
2018-11-07T23:42:46.915Z,54.50
2018-11-07T23:45:16.269Z,54.40
2018-11-07T23:47:45.545Z,54.30
2018-11-07T23:50:14.897Z,54.20
2018-11-07T23:52:47.319Z,54.20
2018-11-07T23:55:17.655Z,54.10
2018-11-07T23:57:46.925Z,54.80
